sensor_id;sensor_type;location;lat;lon;timestamp;temperature;humidity
32348;DHT22;18821;44.800;10.326;2023-02-28T00:02:25;5.40;1.00
32348;DHT22;18821;44.800;10.326;2023-02-28T00:04:51;5.40;1.00
32348;DHT22;18821;44.800;10.326;2023-02-28T00:07:27;5.40;1.00
32348;DHT22;18821;44.800;10.326;2023-02-28T00:09:53;5.40;1.00
32348;DHT22;18821;44.800;10.326;2023-02-28T00:12:19;5.40;1.00
32348;DHT22;18821;44.800;10.326;2023-02-28T00:14:45;5.40;1.00
32348;DHT22;18821;44.800;10.326;2023-02-28T00:17:11;5.40;1.00
32348;DHT22;18821;44.800;10.326;2023-02-28T00:19:37;5.30;1.00
32348;DHT22;18821;44.800;10.326;2023-02-28T00:22:03;5.30;1.00
32348;DHT22;18821;44.800;10.326;2023-02-28T00:24:29;5.40;1.00
32348;DHT22;18821;44.800;10.326;2023-02-28T00:26:55;5.40;1.00
32348;DHT22;18821;44.800;10.326;2023-02-28T00:29:21;5.40;1.00
32348;DHT22;18821;44.800;10.326;2023-02-28T00:31:47;5.40;1.00
32348;DHT22;18821;44.800;10.326;2023-02-28T00:34:13;5.40;1.00
32348;DHT22;18821;44.800;10.326;2023-02-28T00:36:38;5.50;1.00
32348;DHT22;18821;44.800;10.326;2023-02-28T00:39:06;5.50;1.00
32348;DHT22;18821;44.800;10.326;2023-02-28T00:41:32;5.40;1.00
32348;DHT22;18821;44.800;10.326;2023-02-28T00:43:58;5.40;1.00
32348;DHT22;18821;44.800;10.326;2023-02-28T00:46:24;5.40;1.00
32348;DHT22;18821;44.800;10.326;2023-02-28T00:48:50;5.40;1.00
32348;DHT22;18821;44.800;10.326;2023-02-28T00:51:16;5.40;1.00
32348;DHT22;18821;44.800;10.326;2023-02-28T00:53:42;5.40;1.00
32348;DHT22;18821;44.800;10.326;2023-02-28T00:56:08;5.40;1.00
32348;DHT22;18821;44.800;10.326;2023-02-28T00:58:34;5.30;1.00
32348;DHT22;18821;44.800;10.326;2023-02-28T01:00:59;5.30;1.00
32348;DHT22;18821;44.800;10.326;2023-02-28T01:03:25;5.30;1.00
32348;DHT22;18821;44.800;10.326;2023-02-28T01:05:51;5.30;1.00
32348;DHT22;18821;44.800;10.326;2023-02-28T01:08:19;5.30;1.00
32348;DHT22;18821;44.800;10.326;2023-02-28T01:10:45;5.30;1.00
32348;DHT22;18821;44.800;10.326;2023-02-28T01:13:11;5.40;1.00
32348;DHT22;18821;44.800;10.326;2023-02-28T01:15:48;5.40;1.00
32348;DHT22;18821;44.800;10.326;2023-02-28T01:18:15;5.40;1.00
32348;DHT22;18821;44.800;10.326;2023-02-28T01:20:41;5.40;1.00
32348;DHT22;18821;44.800;10.326;2023-02-28T01:23:08;5.40;1.00
32348;DHT22;18821;44.800;10.326;2023-02-28T01:25:35;5.40;1.00
32348;DHT22;18821;44.800;10.326;2023-02-28T01:28:04;5.30;1.00
32348;DHT22;18821;44.800;10.326;2023-02-28T01:30:31;5.30;1.00
32348;DHT22;18821;44.800;10.326;2023-02-28T01:32:58;5.40;1.00
32348;DHT22;18821;44.800;10.326;2023-02-28T01:35:25;5.30;1.00
32348;DHT22;18821;44.800;10.326;2023-02-28T01:37:50;5.30;1.00
32348;DHT22;18821;44.800;10.326;2023-02-28T01:40:18;5.30;1.00
32348;DHT22;18821;44.800;10.326;2023-02-28T01:42:44;5.30;1.00
32348;DHT22;18821;44.800;10.326;2023-02-28T01:45:30;5.20;1.00
32348;DHT22;18821;44.800;10.326;2023-02-28T01:48:02;5.30;1.00
32348;DHT22;18821;44.800;10.326;2023-02-28T01:50:33;5.30;1.00
32348;DHT22;18821;44.800;10.326;2023-02-28T01:53:03;5.20;1.00
32348;DHT22;18821;44.800;10.326;2023-02-28T01:55:31;5.30;1.00
32348;DHT22;18821;44.800;10.326;2023-02-28T01:58:00;5.20;1.00
32348;DHT22;18821;44.800;10.326;2023-02-28T02:00:29;5.10;1.00
32348;DHT22;18821;44.800;10.326;2023-02-28T02:03:03;5.10;1.00
32348;DHT22;18821;44.800;10.326;2023-02-28T02:05:30;5.10;1.00
32348;DHT22;18821;44.800;10.326;2023-02-28T02:08:01;5.10;1.00
32348;DHT22;18821;44.800;10.326;2023-02-28T02:10:39;5.00;1.00
32348;DHT22;18821;44.800;10.326;2023-02-28T02:18:52;5.00;1.00
32348;DHT22;18821;44.800;10.326;2023-02-28T02:37:49;4.80;99.90
32348;DHT22;18821;44.800;10.326;2023-02-28T02:43:20;4.70;99.90
32348;DHT22;18821;44.800;10.326;2023-02-28T02:45:59;4.70;99.90
32348;DHT22;18821;44.800;10.326;2023-02-28T02:48:30;4.70;99.90
32348;DHT22;18821;44.800;10.326;2023-02-28T02:51:01;4.80;99.90
32348;DHT22;18821;44.800;10.326;2023-02-28T02:53:32;4.80;99.90
32348;DHT22;18821;44.800;10.326;2023-02-28T02:56:02;4.80;99.90
32348;DHT22;18821;44.800;10.326;2023-02-28T02:58:35;4.90;99.90
32348;DHT22;18821;44.800;10.326;2023-02-28T03:01:11;4.90;99.90
32348;DHT22;18821;44.800;10.326;2023-02-28T03:03:38;4.90;99.90
32348;DHT22;18821;44.800;10.326;2023-02-28T03:06:05;5.00;99.90
32348;DHT22;18821;44.800;10.326;2023-02-28T03:08:37;5.00;99.90
32348;DHT22;18821;44.800;10.326;2023-02-28T03:11:06;4.90;99.90
32348;DHT22;18821;44.800;10.326;2023-02-28T03:17:22;5.00;99.90
32348;DHT22;18821;44.800;10.326;2023-02-28T03:20:10;4.90;33.90
32348;DHT22;18821;44.800;10.326;2023-02-28T03:22:56;4.80;56.40
32348;DHT22;18821;44.800;10.326;2023-02-28T03:28:19;4.70;99.90
32348;DHT22;18821;44.800;10.326;2023-02-28T03:30:56;4.70;6.60
32348;DHT22;18821;44.800;10.326;2023-02-28T03:33:32;4.70;72.90
32348;DHT22;18821;44.800;10.326;2023-02-28T03:36:04;4.70;99.90
32348;DHT22;18821;44.800;10.326;2023-02-28T03:41:11;4.80;99.90
32348;DHT22;18821;44.800;10.326;2023-02-28T03:43:43;4.80;99.90
32348;DHT22;18821;44.800;10.326;2023-02-28T03:46:12;4.60;99.90
32348;DHT22;18821;44.800;10.326;2023-02-28T03:48:49;4.60;99.90
32348;DHT22;18821;44.800;10.326;2023-02-28T03:51:19;4.50;99.90
32348;DHT22;18821;44.800;10.326;2023-02-28T03:53:52;4.50;99.90
32348;DHT22;18821;44.800;10.326;2023-02-28T03:59:02;4.60;99.90
32348;DHT22;18821;44.800;10.326;2023-02-28T04:01:32;4.60;99.90
32348;DHT22;18821;44.800;10.326;2023-02-28T04:04:01;4.60;99.90
32348;DHT22;18821;44.800;10.326;2023-02-28T04:06:27;4.60;99.90
32348;DHT22;18821;44.800;10.326;2023-02-28T04:08:56;4.60;99.90
32348;DHT22;18821;44.800;10.326;2023-02-28T04:11:23;4.70;99.90
32348;DHT22;18821;44.800;10.326;2023-02-28T04:13:52;4.70;99.90
32348;DHT22;18821;44.800;10.326;2023-02-28T04:16:18;4.70;99.90
32348;DHT22;18821;44.800;10.326;2023-02-28T04:18:44;4.70;99.90
32348;DHT22;18821;44.800;10.326;2023-02-28T04:21:10;4.70;99.90
32348;DHT22;18821;44.800;10.326;2023-02-28T04:23:37;4.60;61.60
32348;DHT22;18821;44.800;10.326;2023-02-28T04:26:03;4.50;84.50
32348;DHT22;18821;44.800;10.326;2023-02-28T04:28:30;4.50;99.90
32348;DHT22;18821;44.800;10.326;2023-02-28T04:30:57;4.60;99.90
32348;DHT22;18821;44.800;10.326;2023-02-28T04:33:23;4.60;82.20
32348;DHT22;18821;44.800;10.326;2023-02-28T04:35:59;4.60;99.90
32348;DHT22;18821;44.800;10.326;2023-02-28T04:38:25;4.50;90.00
32348;DHT22;18821;44.800;10.326;2023-02-28T04:40:51;4.60;99.30
32348;DHT22;18821;44.800;10.326;2023-02-28T04:43:17;4.60;99.90
32348;DHT22;18821;44.800;10.326;2023-02-28T04:45:43;4.60;99.90
32348;DHT22;18821;44.800;10.326;2023-02-28T04:48:09;4.60;57.90
32348;DHT22;18821;44.800;10.326;2023-02-28T04:50:35;4.60;6.80
32348;DHT22;18821;44.800;10.326;2023-02-28T04:53:01;4.60;1.00
32348;DHT22;18821;44.800;10.326;2023-02-28T04:55:27;4.60;16.00
32348;DHT22;18821;44.800;10.326;2023-02-28T04:57:53;4.50;1.00
32348;DHT22;18821;44.800;10.326;2023-02-28T05:00:19;4.60;33.60
32348;DHT22;18821;44.800;10.326;2023-02-28T05:02:46;4.60;67.30
32348;DHT22;18821;44.800;10.326;2023-02-28T05:05:12;4.60;99.90
32348;DHT22;18821;44.800;10.326;2023-02-28T05:07:44;4.60;85.90
32348;DHT22;18821;44.800;10.326;2023-02-28T05:10:11;4.60;99.90
32348;DHT22;18821;44.800;10.326;2023-02-28T05:12:37;4.60;99.80
32348;DHT22;18821;44.800;10.326;2023-02-28T05:15:05;4.60;99.90
32348;DHT22;18821;44.800;10.326;2023-02-28T05:17:31;4.60;38.60
32348;DHT22;18821;44.800;10.326;2023-02-28T05:19:57;4.60;92.90
32348;DHT22;18821;44.800;10.326;2023-02-28T05:22:23;4.50;99.90
32348;DHT22;18821;44.800;10.326;2023-02-28T05:24:49;4.60;99.90
32348;DHT22;18821;44.800;10.326;2023-02-28T05:27:14;4.60;99.90
32348;DHT22;18821;44.800;10.326;2023-02-28T05:29:40;4.60;99.90
32348;DHT22;18821;44.800;10.326;2023-02-28T05:32:10;4.60;87.30
32348;DHT22;18821;44.800;10.326;2023-02-28T05:34:38;4.60;99.90
32348;DHT22;18821;44.800;10.326;2023-02-28T05:37:05;4.60;99.90
32348;DHT22;18821;44.800;10.326;2023-02-28T05:39:32;4.70;99.90
32348;DHT22;18821;44.800;10.326;2023-02-28T05:41:58;4.70;78.80
32348;DHT22;18821;44.800;10.326;2023-02-28T05:44:24;4.70;75.70
32348;DHT22;18821;44.800;10.326;2023-02-28T05:46:50;4.70;30.30
32348;DHT22;18821;44.800;10.326;2023-02-28T05:49:16;4.70;96.70
32348;DHT22;18821;44.800;10.326;2023-02-28T05:51:43;4.70;99.90
32348;DHT22;18821;44.800;10.326;2023-02-28T05:54:09;4.70;99.20
32348;DHT22;18821;44.800;10.326;2023-02-28T05:56:35;4.70;39.30
32348;DHT22;18821;44.800;10.326;2023-02-28T05:59:03;4.60;95.50
32348;DHT22;18821;44.800;10.326;2023-02-28T06:01:32;4.60;99.90
32348;DHT22;18821;44.800;10.326;2023-02-28T06:04:02;4.60;99.90
32348;DHT22;18821;44.800;10.326;2023-02-28T06:06:29;4.70;99.90
32348;DHT22;18821;44.800;10.326;2023-02-28T06:08:56;4.70;99.90
32348;DHT22;18821;44.800;10.326;2023-02-28T06:11:22;4.70;99.90
32348;DHT22;18821;44.800;10.326;2023-02-28T06:13:59;4.70;99.90
32348;DHT22;18821;44.800;10.326;2023-02-28T06:16:31;4.70;99.90
32348;DHT22;18821;44.800;10.326;2023-02-28T06:18:58;4.70;99.90
32348;DHT22;18821;44.800;10.326;2023-02-28T06:21:25;4.70;99.90
32348;DHT22;18821;44.800;10.326;2023-02-28T06:23:53;4.70;99.90
32348;DHT22;18821;44.800;10.326;2023-02-28T06:26:19;4.70;1.00
32348;DHT22;18821;44.800;10.326;2023-02-28T06:28:48;4.70;1.00
32348;DHT22;18821;44.800;10.326;2023-02-28T06:31:16;4.60;1.00
32348;DHT22;18821;44.800;10.326;2023-02-28T06:33:43;4.60;1.00
32348;DHT22;18821;44.800;10.326;2023-02-28T06:36:10;4.50;1.00
32348;DHT22;18821;44.800;10.326;2023-02-28T06:38:37;4.50;1.00
32348;DHT22;18821;44.800;10.326;2023-02-28T06:41:03;4.50;1.00
32348;DHT22;18821;44.800;10.326;2023-02-28T06:43:32;4.50;1.00
32348;DHT22;18821;44.800;10.326;2023-02-28T06:46:00;4.50;1.00
32348;DHT22;18821;44.800;10.326;2023-02-28T06:48:26;4.50;1.00
32348;DHT22;18821;44.800;10.326;2023-02-28T06:51:04;4.50;1.00
32348;DHT22;18821;44.800;10.326;2023-02-28T06:53:31;4.50;1.00
32348;DHT22;18821;44.800;10.326;2023-02-28T06:55:58;4.50;1.00
32348;DHT22;18821;44.800;10.326;2023-02-28T06:58:24;4.40;1.00
32348;DHT22;18821;44.800;10.326;2023-02-28T07:00:52;4.50;1.00
32348;DHT22;18821;44.800;10.326;2023-02-28T07:03:18;4.50;1.00
32348;DHT22;18821;44.800;10.326;2023-02-28T07:05:45;4.50;1.00
32348;DHT22;18821;44.800;10.326;2023-02-28T07:08:11;4.50;1.00
32348;DHT22;18821;44.800;10.326;2023-02-28T07:10:37;4.50;1.00
32348;DHT22;18821;44.800;10.326;2023-02-28T07:13:05;4.40;1.00
32348;DHT22;18821;44.800;10.326;2023-02-28T07:15:31;4.40;1.00
32348;DHT22;18821;44.800;10.326;2023-02-28T07:17:57;4.50;1.00
32348;DHT22;18821;44.800;10.326;2023-02-28T07:20:23;4.50;1.00
32348;DHT22;18821;44.800;10.326;2023-02-28T07:22:50;4.60;1.00
32348;DHT22;18821;44.800;10.326;2023-02-28T07:25:26;4.60;1.00
32348;DHT22;18821;44.800;10.326;2023-02-28T07:27:54;4.60;1.00
32348;DHT22;18821;44.800;10.326;2023-02-28T07:30:20;4.70;1.00
32348;DHT22;18821;44.800;10.326;2023-02-28T07:32:46;4.70;1.00
32348;DHT22;18821;44.800;10.326;2023-02-28T07:35:13;4.70;1.00
32348;DHT22;18821;44.800;10.326;2023-02-28T07:37:41;4.70;1.00
32348;DHT22;18821;44.800;10.326;2023-02-28T07:40:09;4.80;1.00
32348;DHT22;18821;44.800;10.326;2023-02-28T07:42:40;4.70;1.00
32348;DHT22;18821;44.800;10.326;2023-02-28T07:45:09;4.80;1.00
32348;DHT22;18821;44.800;10.326;2023-02-28T07:47:41;4.90;1.00
32348;DHT22;18821;44.800;10.326;2023-02-28T07:50:10;5.00;1.00
32348;DHT22;18821;44.800;10.326;2023-02-28T07:52:37;5.00;1.00
32348;DHT22;18821;44.800;10.326;2023-02-28T07:55:05;5.10;1.00
32348;DHT22;18821;44.800;10.326;2023-02-28T07:57:32;5.10;1.00
32348;DHT22;18821;44.800;10.326;2023-02-28T07:59:58;5.10;1.00
32348;DHT22;18821;44.800;10.326;2023-02-28T08:02:24;5.20;1.00
32348;DHT22;18821;44.800;10.326;2023-02-28T08:04:50;5.30;1.00
32348;DHT22;18821;44.800;10.326;2023-02-28T08:07:17;5.30;1.00
32348;DHT22;18821;44.800;10.326;2023-02-28T08:09:44;5.40;1.00
32348;DHT22;18821;44.800;10.326;2023-02-28T08:12:11;5.50;1.00
32348;DHT22;18821;44.800;10.326;2023-02-28T08:14:37;5.50;1.00
32348;DHT22;18821;44.800;10.326;2023-02-28T08:17:05;5.50;99.90
32348;DHT22;18821;44.800;10.326;2023-02-28T08:19:31;5.60;99.90
32348;DHT22;18821;44.800;10.326;2023-02-28T08:21:57;5.70;99.90
32348;DHT22;18821;44.800;10.326;2023-02-28T08:24:24;5.70;99.90
32348;DHT22;18821;44.800;10.326;2023-02-28T08:26:50;5.60;99.90
32348;DHT22;18821;44.800;10.326;2023-02-28T08:29:16;5.60;99.90
32348;DHT22;18821;44.800;10.326;2023-02-28T08:31:42;5.70;99.90
32348;DHT22;18821;44.800;10.326;2023-02-28T08:34:10;5.80;99.90
32348;DHT22;18821;44.800;10.326;2023-02-28T08:36:37;5.80;99.90
32348;DHT22;18821;44.800;10.326;2023-02-28T08:39:03;5.80;99.90
32348;DHT22;18821;44.800;10.326;2023-02-28T08:41:29;6.00;99.90
32348;DHT22;18821;44.800;10.326;2023-02-28T08:43:55;6.00;99.90
32348;DHT22;18821;44.800;10.326;2023-02-28T08:46:22;6.10;99.90
32348;DHT22;18821;44.800;10.326;2023-02-28T08:48:52;6.20;99.90
32348;DHT22;18821;44.800;10.326;2023-02-28T08:51:19;6.30;99.90
32348;DHT22;18821;44.800;10.326;2023-02-28T08:53:58;6.50;99.90
32348;DHT22;18821;44.800;10.326;2023-02-28T08:56:25;6.60;99.90
32348;DHT22;18821;44.800;10.326;2023-02-28T08:58:56;6.70;99.90
32348;DHT22;18821;44.800;10.326;2023-02-28T09:01:25;6.80;99.90
32348;DHT22;18821;44.800;10.326;2023-02-28T09:03:53;6.40;1.00
32348;DHT22;18821;44.800;10.326;2023-02-28T09:06:21;6.00;1.00
32348;DHT22;18821;44.800;10.326;2023-02-28T09:08:47;6.20;99.90
32348;DHT22;18821;44.800;10.326;2023-02-28T09:11:14;6.40;99.90
32348;DHT22;18821;44.800;10.326;2023-02-28T09:13:40;6.40;1.00
32348;DHT22;18821;44.800;10.326;2023-02-28T09:16:10;6.00;42.60
32348;DHT22;18821;44.800;10.326;2023-02-28T09:18:37;6.10;99.90
32348;DHT22;18821;44.800;10.326;2023-02-28T09:21:09;6.20;99.90
32348;DHT22;18821;44.800;10.326;2023-02-28T09:23:37;6.50;99.90
32348;DHT22;18821;44.800;10.326;2023-02-28T09:26:06;6.80;91.60
32348;DHT22;18821;44.800;10.326;2023-02-28T09:28:32;7.10;1.00
32348;DHT22;18821;44.800;10.326;2023-02-28T09:30:58;7.20;1.00
32348;DHT22;18821;44.800;10.326;2023-02-28T09:33:25;7.20;1.00
32348;DHT22;18821;44.800;10.326;2023-02-28T09:35:58;7.30;1.00
32348;DHT22;18821;44.800;10.326;2023-02-28T09:38:25;7.40;1.00
32348;DHT22;18821;44.800;10.326;2023-02-28T09:41:01;7.30;99.90
32348;DHT22;18821;44.800;10.326;2023-02-28T09:43:36;7.20;1.00
32348;DHT22;18821;44.800;10.326;2023-02-28T09:49:23;7.30;1.00
32348;DHT22;18821;44.800;10.326;2023-02-28T09:52:03;7.50;1.00
32348;DHT22;18821;44.800;10.326;2023-02-28T09:54:31;7.80;99.90
32348;DHT22;18821;44.800;10.326;2023-02-28T09:57:19;8.00;99.90
32348;DHT22;18821;44.800;10.326;2023-02-28T10:00:03;8.10;18.40
32348;DHT22;18821;44.800;10.326;2023-02-28T10:05:47;7.70;8.10
32348;DHT22;18821;44.800;10.326;2023-02-28T10:11:06;7.50;99.90
32348;DHT22;18821;44.800;10.326;2023-02-28T10:16:14;7.90;1.00
32348;DHT22;18821;44.800;10.326;2023-02-28T10:24:46;8.10;1.00
32348;DHT22;18821;44.800;10.326;2023-02-28T10:27:24;7.80;1.00
32348;DHT22;18821;44.800;10.326;2023-02-28T10:30:05;7.80;40.40
32348;DHT22;18821;44.800;10.326;2023-02-28T10:32:34;7.50;1.00
32348;DHT22;18821;44.800;10.326;2023-02-28T10:37:33;6.70;99.90
32348;DHT22;18821;44.800;10.326;2023-02-28T10:40:31;6.80;99.90
32348;DHT22;18821;44.800;10.326;2023-02-28T10:43:05;7.00;99.90
32348;DHT22;18821;44.800;10.326;2023-02-28T10:45:33;6.70;99.90
32348;DHT22;18821;44.800;10.326;2023-02-28T11:01:46;7.50;99.90
32348;DHT22;18821;44.800;10.326;2023-02-28T11:07:01;7.80;1.00
32348;DHT22;18821;44.800;10.326;2023-02-28T11:11:55;8.10;1.00
32348;DHT22;18821;44.800;10.326;2023-02-28T11:14:30;8.30;99.90
32348;DHT22;18821;44.800;10.326;2023-02-28T11:17:02;8.40;1.00
32348;DHT22;18821;44.800;10.326;2023-02-28T11:19:37;8.10;27.00
32348;DHT22;18821;44.800;10.326;2023-02-28T11:22:06;8.30;1.00
32348;DHT22;18821;44.800;10.326;2023-02-28T11:24:36;8.20;99.90
32348;DHT22;18821;44.800;10.326;2023-02-28T11:27:03;8.30;99.90
32348;DHT22;18821;44.800;10.326;2023-02-28T11:29:31;8.20;1.00
32348;DHT22;18821;44.800;10.326;2023-02-28T11:32:18;8.50;1.00
32348;DHT22;18821;44.800;10.326;2023-02-28T11:34:46;8.60;41.50
32348;DHT22;18821;44.800;10.326;2023-02-28T11:37:15;8.40;1.00
32348;DHT22;18821;44.800;10.326;2023-02-28T11:39:43;8.30;99.90
32348;DHT22;18821;44.800;10.326;2023-02-28T11:47:48;8.40;99.90
32348;DHT22;18821;44.800;10.326;2023-02-28T11:50:45;8.30;1.00
32348;DHT22;18821;44.800;10.326;2023-02-28T11:53:27;8.10;99.90
32348;DHT22;18821;44.800;10.326;2023-02-28T11:59:27;8.20;1.00
32348;DHT22;18821;44.800;10.326;2023-02-28T12:10:26;7.80;59.00
32348;DHT22;18821;44.800;10.326;2023-02-28T12:18:55;7.80;99.90
32348;DHT22;18821;44.800;10.326;2023-02-28T12:26:58;8.40;1.00
32348;DHT22;18821;44.800;10.326;2023-02-28T12:29:34;8.40;99.90
32348;DHT22;18821;44.800;10.326;2023-02-28T12:32:16;8.20;1.00
32348;DHT22;18821;44.800;10.326;2023-02-28T12:34:52;8.30;99.90
32348;DHT22;18821;44.800;10.326;2023-02-28T12:37:36;8.40;1.00
32348;DHT22;18821;44.800;10.326;2023-02-28T12:40:11;8.70;99.90
32348;DHT22;18821;44.800;10.326;2023-02-28T12:42:42;8.80;33.10
32348;DHT22;18821;44.800;10.326;2023-02-28T12:45:19;8.80;99.90
32348;DHT22;18821;44.800;10.326;2023-02-28T12:47:50;8.90;99.90
32348;DHT22;18821;44.800;10.326;2023-02-28T12:50:18;8.80;99.90
32348;DHT22;18821;44.800;10.326;2023-02-28T12:52:55;8.70;53.00
32348;DHT22;18821;44.800;10.326;2023-02-28T13:09:19;9.50;1.00
32348;DHT22;18821;44.800;10.326;2023-02-28T13:11:53;9.70;25.10
32348;DHT22;18821;44.800;10.326;2023-02-28T13:17:01;10.00;1.00
32348;DHT22;18821;44.800;10.326;2023-02-28T13:19:31;10.10;99.90
32348;DHT22;18821;44.800;10.326;2023-02-28T13:21:58;10.10;99.90
32348;DHT22;18821;44.800;10.326;2023-02-28T13:24:38;10.00;99.90
32348;DHT22;18821;44.800;10.326;2023-02-28T13:29:40;9.50;30.90
32348;DHT22;18821;44.800;10.326;2023-02-28T13:42:33;10.40;99.90
32348;DHT22;18821;44.800;10.326;2023-02-28T13:47:58;10.40;99.90
32348;DHT22;18821;44.800;10.326;2023-02-28T13:50:51;10.50;99.90
32348;DHT22;18821;44.800;10.326;2023-02-28T13:53:38;10.30;3.70
32348;DHT22;18821;44.800;10.326;2023-02-28T13:56:27;10.30;47.50
32348;DHT22;18821;44.800;10.326;2023-02-28T14:02:13;10.10;99.90
32348;DHT22;18821;44.800;10.326;2023-02-28T14:05:06;9.90;1.00
32348;DHT22;18821;44.800;10.326;2023-02-28T14:07:53;9.70;1.00
32348;DHT22;18821;44.800;10.326;2023-02-28T14:10:28;9.70;99.90
32348;DHT22;18821;44.800;10.326;2023-02-28T14:13:11;9.50;1.00
32348;DHT22;18821;44.800;10.326;2023-02-28T14:20:52;9.50;99.90
32348;DHT22;18821;44.800;10.326;2023-02-28T14:23:50;9.60;65.30
32348;DHT22;18821;44.800;10.326;2023-02-28T14:32:15;9.60;1.00
32348;DHT22;18821;44.800;10.326;2023-02-28T14:37:20;9.40;99.90
32348;DHT22;18821;44.800;10.326;2023-02-28T14:39:49;9.50;99.90
32348;DHT22;18821;44.800;10.326;2023-02-28T14:42:35;9.60;99.90
32348;DHT22;18821;44.800;10.326;2023-02-28T14:45:05;9.40;99.90
32348;DHT22;18821;44.800;10.326;2023-02-28T14:47:33;9.10;99.90
32348;DHT22;18821;44.800;10.326;2023-02-28T14:50:02;9.20;1.00
32348;DHT22;18821;44.800;10.326;2023-02-28T14:52:31;9.10;1.00
32348;DHT22;18821;44.800;10.326;2023-02-28T14:57:31;9.00;99.90
32348;DHT22;18821;44.800;10.326;2023-02-28T15:00:20;8.90;99.90
32348;DHT22;18821;44.800;10.326;2023-02-28T15:02:47;8.90;1.00
32348;DHT22;18821;44.800;10.326;2023-02-28T15:07:43;9.10;99.90
32348;DHT22;18821;44.800;10.326;2023-02-28T15:10:24;9.10;99.90
32348;DHT22;18821;44.800;10.326;2023-02-28T15:15:45;9.10;1.00
32348;DHT22;18821;44.800;10.326;2023-02-28T15:18:27;9.00;1.00
32348;DHT22;18821;44.800;10.326;2023-02-28T15:21:02;9.10;84.80
32348;DHT22;18821;44.800;10.326;2023-02-28T15:23:29;9.10;1.20
32348;DHT22;18821;44.800;10.326;2023-02-28T15:25:56;9.10;1.00
32348;DHT22;18821;44.800;10.326;2023-02-28T15:28:23;9.00;99.90
32348;DHT22;18821;44.800;10.326;2023-02-28T15:30:52;8.90;99.90
32348;DHT22;18821;44.800;10.326;2023-02-28T15:33:22;8.90;99.90
32348;DHT22;18821;44.800;10.326;2023-02-28T15:35:49;8.90;99.90
32348;DHT22;18821;44.800;10.326;2023-02-28T15:38:22;8.90;99.90
32348;DHT22;18821;44.800;10.326;2023-02-28T15:40:52;9.00;99.90
32348;DHT22;18821;44.800;10.326;2023-02-28T15:43:35;9.00;9.70
32348;DHT22;18821;44.800;10.326;2023-02-28T15:46:09;9.00;99.90
32348;DHT22;18821;44.800;10.326;2023-02-28T15:48:37;8.90;99.90
32348;DHT22;18821;44.800;10.326;2023-02-28T15:51:19;8.80;1.00
32348;DHT22;18821;44.800;10.326;2023-02-28T15:54:07;8.60;99.90
32348;DHT22;18821;44.800;10.326;2023-02-28T15:56:39;8.50;1.00
32348;DHT22;18821;44.800;10.326;2023-02-28T15:59:15;8.40;1.00
32348;DHT22;18821;44.800;10.326;2023-02-28T16:01:43;8.30;99.90
32348;DHT22;18821;44.800;10.326;2023-02-28T16:04:19;8.30;1.00
32348;DHT22;18821;44.800;10.326;2023-02-28T16:07:11;8.20;99.90
32348;DHT22;18821;44.800;10.326;2023-02-28T16:09:37;8.20;99.90
32348;DHT22;18821;44.800;10.326;2023-02-28T16:12:04;8.10;1.00
32348;DHT22;18821;44.800;10.326;2023-02-28T16:14:33;8.10;1.00
32348;DHT22;18821;44.800;10.326;2023-02-28T16:17:07;8.00;10.00
32348;DHT22;18821;44.800;10.326;2023-02-28T16:19:38;8.00;99.90
32348;DHT22;18821;44.800;10.326;2023-02-28T16:22:08;7.90;43.40
32348;DHT22;18821;44.800;10.326;2023-02-28T16:24:35;7.90;99.90
32348;DHT22;18821;44.800;10.326;2023-02-28T16:27:05;7.80;99.90
32348;DHT22;18821;44.800;10.326;2023-02-28T16:29:36;7.80;99.90
32348;DHT22;18821;44.800;10.326;2023-02-28T16:32:05;7.70;99.90
32348;DHT22;18821;44.800;10.326;2023-02-28T16:34:31;7.60;99.90
32348;DHT22;18821;44.800;10.326;2023-02-28T16:36:57;7.60;99.90
32348;DHT22;18821;44.800;10.326;2023-02-28T16:39:24;7.60;1.00
32348;DHT22;18821;44.800;10.326;2023-02-28T16:41:51;7.50;1.00
32348;DHT22;18821;44.800;10.326;2023-02-28T16:44:32;7.40;1.00
32348;DHT22;18821;44.800;10.326;2023-02-28T16:47:00;7.30;1.00
32348;DHT22;18821;44.800;10.326;2023-02-28T16:49:28;7.20;1.00
32348;DHT22;18821;44.800;10.326;2023-02-28T16:51:54;7.10;25.70
32348;DHT22;18821;44.800;10.326;2023-02-28T16:54:20;7.10;77.40
32348;DHT22;18821;44.800;10.326;2023-02-28T16:56:48;7.10;81.20
32348;DHT22;18821;44.800;10.326;2023-02-28T16:59:24;7.10;99.90
32348;DHT22;18821;44.800;10.326;2023-02-28T17:01:51;7.10;99.90
32348;DHT22;18821;44.800;10.326;2023-02-28T17:04:17;7.10;99.90
32348;DHT22;18821;44.800;10.326;2023-02-28T17:06:43;7.00;99.90
32348;DHT22;18821;44.800;10.326;2023-02-28T17:09:21;7.00;99.90
32348;DHT22;18821;44.800;10.326;2023-02-28T17:11:47;7.00;99.90
32348;DHT22;18821;44.800;10.326;2023-02-28T17:14:16;7.00;99.90
32348;DHT22;18821;44.800;10.326;2023-02-28T17:16:42;7.00;99.90
32348;DHT22;18821;44.800;10.326;2023-02-28T17:19:13;7.00;99.90
32348;DHT22;18821;44.800;10.326;2023-02-28T17:21:40;7.00;99.90
32348;DHT22;18821;44.800;10.326;2023-02-28T17:24:08;6.90;99.90
32348;DHT22;18821;44.800;10.326;2023-02-28T17:26:34;7.00;99.90
32348;DHT22;18821;44.800;10.326;2023-02-28T17:29:00;7.00;99.90
32348;DHT22;18821;44.800;10.326;2023-02-28T17:31:27;7.00;99.90
32348;DHT22;18821;44.800;10.326;2023-02-28T17:33:53;7.00;99.90
32348;DHT22;18821;44.800;10.326;2023-02-28T17:36:24;7.00;99.90
32348;DHT22;18821;44.800;10.326;2023-02-28T17:38:54;7.00;99.90
32348;DHT22;18821;44.800;10.326;2023-02-28T17:41:30;7.00;99.90
32348;DHT22;18821;44.800;10.326;2023-02-28T17:43:56;6.90;99.90
32348;DHT22;18821;44.800;10.326;2023-02-28T17:46:24;6.90;99.90
32348;DHT22;18821;44.800;10.326;2023-02-28T17:48:53;7.00;99.90
32348;DHT22;18821;44.800;10.326;2023-02-28T17:51:23;7.00;99.90
32348;DHT22;18821;44.800;10.326;2023-02-28T17:53:49;7.00;99.90
32348;DHT22;18821;44.800;10.326;2023-02-28T17:56:20;6.90;99.90
32348;DHT22;18821;44.800;10.326;2023-02-28T17:58:47;7.00;99.90
32348;DHT22;18821;44.800;10.326;2023-02-28T18:01:13;7.00;99.90
32348;DHT22;18821;44.800;10.326;2023-02-28T18:03:39;7.00;99.90
32348;DHT22;18821;44.800;10.326;2023-02-28T18:06:06;7.00;99.90
32348;DHT22;18821;44.800;10.326;2023-02-28T18:08:32;7.00;99.90
32348;DHT22;18821;44.800;10.326;2023-02-28T18:11:01;7.00;99.90
32348;DHT22;18821;44.800;10.326;2023-02-28T18:13:27;7.10;99.90
32348;DHT22;18821;44.800;10.326;2023-02-28T18:15:54;7.10;99.90
32348;DHT22;18821;44.800;10.326;2023-02-28T18:18:20;7.10;99.90
32348;DHT22;18821;44.800;10.326;2023-02-28T18:20:46;7.10;99.90
32348;DHT22;18821;44.800;10.326;2023-02-28T18:23:16;7.10;99.90
32348;DHT22;18821;44.800;10.326;2023-02-28T18:25:44;7.10;99.90
32348;DHT22;18821;44.800;10.326;2023-02-28T18:28:10;7.10;99.90
32348;DHT22;18821;44.800;10.326;2023-02-28T18:30:36;7.00;99.90
32348;DHT22;18821;44.800;10.326;2023-02-28T18:33:02;7.00;99.90
32348;DHT22;18821;44.800;10.326;2023-02-28T18:35:29;7.10;99.90
32348;DHT22;18821;44.800;10.326;2023-02-28T18:38:11;7.10;99.90